createdAt,value
2019-02-09T00:01:55.147Z,69.90
2019-02-09T00:04:25.907Z,70.00
2019-02-09T00:06:56.561Z,70.20
2019-02-09T00:09:27.198Z,70.20
2019-02-09T00:11:57.881Z,70.30
2019-02-09T00:14:28.497Z,70.40
2019-02-09T00:16:59.401Z,70.20
2019-02-09T00:19:31.551Z,70.30
2019-02-09T00:22:02.245Z,70.40
2019-02-09T00:24:33.183Z,70.60
2019-02-09T00:27:03.715Z,70.60
2019-02-09T00:29:34.365Z,70.80
2019-02-09T00:32:05.071Z,70.80
2019-02-09T00:34:35.982Z,70.40
2019-02-09T00:37:06.562Z,71.20
2019-02-09T00:39:37.995Z,70.90
2019-02-09T00:42:08.879Z,71.00
2019-02-09T00:44:39.461Z,70.90
2019-02-09T00:47:10.041Z,71.00
2019-02-09T00:49:40.699Z,71.10
2019-02-09T00:52:11.302Z,71.20
2019-02-09T00:54:42.234Z,71.10
2019-02-09T00:57:12.944Z,71.20
2019-02-09T00:59:43.579Z,71.30
2019-02-09T01:02:14.344Z,71.20
2019-02-09T01:04:44.945Z,71.20
2019-02-09T01:07:16.667Z,71.20
2019-02-09T01:09:47.283Z,71.20
2019-02-09T01:12:17.912Z,71.20
2019-02-09T01:14:48.575Z,71.40
2019-02-09T01:17:19.275Z,71.40
2019-02-09T01:19:49.823Z,71.50
2019-02-09T01:22:20.448Z,71.60
2019-02-09T01:24:51.081Z,71.70
2019-02-09T01:27:21.666Z,71.70
2019-02-09T01:29:52.385Z,71.60
2019-02-09T01:32:22.902Z,71.80
2019-02-09T01:34:53.526Z,72.00
2019-02-09T01:37:24.196Z,71.90
2019-02-09T01:39:55.225Z,71.90
2019-02-09T01:42:26.247Z,72.00
2019-02-09T01:44:56.857Z,72.20
2019-02-09T01:47:27.474Z,72.10
2019-02-09T01:49:58.083Z,72.00
2019-02-09T01:52:28.761Z,72.10
2019-02-09T01:54:59.698Z,72.20
2019-02-09T01:57:30.275Z,72.20
2019-02-09T02:00:00.885Z,72.20
2019-02-09T02:02:31.662Z,72.20
2019-02-09T02:05:02.565Z,72.40
2019-02-09T02:07:33.240Z,72.30
2019-02-09T02:10:04.710Z,72.50
2019-02-09T02:12:36.051Z,72.50
2019-02-09T02:15:09.681Z,72.60
2019-02-09T02:17:40.543Z,72.70
2019-02-09T02:20:14.945Z,72.20
2019-02-09T02:22:45.608Z,72.20
2019-02-09T02:25:17.203Z,72.20
2019-02-09T02:27:47.912Z,72.10
2019-02-09T02:30:22.954Z,71.90
2019-02-09T02:32:53.443Z,71.80
2019-02-09T02:35:24.030Z,71.80
2019-02-09T02:37:54.547Z,71.80
2019-02-09T02:40:25.520Z,71.80
2019-02-09T02:42:56.282Z,71.70
2019-02-09T02:45:26.900Z,71.60
2019-02-09T02:47:57.551Z,71.60
2019-02-09T02:50:28.212Z,71.50
2019-02-09T02:52:58.790Z,71.50
2019-02-09T02:55:29.445Z,71.40
2019-02-09T02:57:59.973Z,71.40
2019-02-09T03:00:32.651Z,71.20
2019-02-09T03:03:03.993Z,71.10
2019-02-09T03:05:34.675Z,71.10
2019-02-09T03:08:05.994Z,71.10
2019-02-09T03:10:36.724Z,71.00
2019-02-09T03:13:07.423Z,71.20
2019-02-09T03:15:37.999Z,71.00
2019-02-09T03:18:09.345Z,71.20
2019-02-09T03:20:39.987Z,71.10
2019-02-09T03:23:10.539Z,71.10
2019-02-09T03:25:41.168Z,71.20
2019-02-09T03:28:11.720Z,71.10
2019-02-09T03:30:47.621Z,71.10
2019-02-09T03:33:14.551Z,71.40
2019-02-09T03:35:45.671Z,71.00
2019-02-09T03:38:16.711Z,71.00
2019-02-09T03:40:47.370Z,71.00
2019-02-09T03:43:18.057Z,70.90
2019-02-09T03:45:48.671Z,70.60
2019-02-09T03:48:19.450Z,70.50
2019-02-09T03:50:50.037Z,70.50
2019-02-09T03:53:20.746Z,70.50
2019-02-09T03:55:51.387Z,70.50
2019-02-09T03:58:22.016Z,70.60
2019-02-09T04:00:55.472Z,70.60
2019-02-09T04:03:25.029Z,70.40
2019-02-09T04:05:55.713Z,70.50
2019-02-09T04:08:26.379Z,70.10
2019-02-09T04:10:57.054Z,70.20
2019-02-09T04:13:27.550Z,70.20
2019-02-09T04:15:58.068Z,70.20
2019-02-09T04:18:28.597Z,70.20
2019-02-09T04:20:59.217Z,70.00
2019-02-09T04:23:29.820Z,70.00
2019-02-09T04:26:00.383Z,70.00
2019-02-09T04:28:31.074Z,69.90
2019-02-09T04:31:05.947Z,69.80
2019-02-09T04:33:35.276Z,69.90
2019-02-09T04:36:05.948Z,69.90
2019-02-09T04:38:36.553Z,70.00
2019-02-09T04:41:07.161Z,70.20
2019-02-09T04:43:37.716Z,70.00
2019-02-09T04:46:08.346Z,70.00
2019-02-09T04:48:38.955Z,70.00
2019-02-09T04:51:09.635Z,69.40
2019-02-09T04:53:40.357Z,69.90
2019-02-09T04:56:11.469Z,69.90
2019-02-09T04:58:41.990Z,69.90
2019-02-09T05:01:14.279Z,69.70
2019-02-09T05:03:45.210Z,69.70
2019-02-09T05:06:16.229Z,69.50
2019-02-09T05:08:47.244Z,69.50
2019-02-09T05:11:18.175Z,69.70
2019-02-09T05:13:48.834Z,69.60
2019-02-09T05:16:20.423Z,69.80
2019-02-09T05:18:50.989Z,69.80
2019-02-09T05:21:21.627Z,69.80
2019-02-09T05:23:52.278Z,70.00
2019-02-09T05:26:22.961Z,70.10
2019-02-09T05:28:53.478Z,70.20
2019-02-09T05:31:24.107Z,71.10
2019-02-09T05:33:54.867Z,70.40
2019-02-09T05:36:25.359Z,70.50
2019-02-09T05:38:56.410Z,70.70
2019-02-09T05:41:26.985Z,70.60
2019-02-09T05:43:57.603Z,70.60
2019-02-09T05:46:28.137Z,70.60
2019-02-09T05:48:58.765Z,70.60
2019-02-09T05:51:29.408Z,70.70
2019-02-09T05:54:00.098Z,70.70
2019-02-09T05:56:30.736Z,70.80
2019-02-09T05:59:01.449Z,70.90
2019-02-09T06:01:32.742Z,70.40
2019-02-09T06:04:04.149Z,71.00
2019-02-09T06:06:34.730Z,71.10
2019-02-09T06:09:08.032Z,71.10
2019-02-09T06:11:38.657Z,71.10
2019-02-09T06:14:10.605Z,71.10
2019-02-09T06:16:41.607Z,71.10
2019-02-09T06:19:12.579Z,71.20
2019-02-09T06:21:43.287Z,71.30
2019-02-09T06:24:13.961Z,71.30
2019-02-09T06:26:44.493Z,71.30
2019-02-09T06:29:15.097Z,71.30
2019-02-09T06:31:45.639Z,71.30
2019-02-09T06:34:16.192Z,71.40
2019-02-09T06:36:46.832Z,71.40
2019-02-09T06:39:17.447Z,71.30
2019-02-09T06:41:49.099Z,71.30
2019-02-09T06:44:19.601Z,71.70
2019-02-09T06:46:50.146Z,72.00
2019-02-09T06:49:20.679Z,72.50
2019-02-09T06:51:51.234Z,73.10
2019-02-09T06:54:21.838Z,73.10
2019-02-09T06:56:52.426Z,73.00
2019-02-09T06:59:22.979Z,73.50
2019-02-09T07:01:53.550Z,73.40
2019-02-09T07:04:24.221Z,73.70
2019-02-09T07:06:55.144Z,73.70
2019-02-09T07:09:25.795Z,73.80
2019-02-09T07:11:56.431Z,73.00
2019-02-09T07:14:26.915Z,72.30
2019-02-09T07:16:57.909Z,71.40
2019-02-09T07:19:28.538Z,71.50
2019-02-09T07:22:00.303Z,71.40
2019-02-09T07:24:30.857Z,71.20
2019-02-09T07:27:01.594Z,71.40
2019-02-09T07:29:32.291Z,71.50
2019-02-09T07:32:03.007Z,71.50
2019-02-09T07:34:33.651Z,71.50
2019-02-09T07:37:04.304Z,70.00
2019-02-09T07:39:35.348Z,68.50
2019-02-09T07:42:05.977Z,68.40
2019-02-09T07:44:36.638Z,68.70
2019-02-09T07:47:07.231Z,69.10
2019-02-09T07:49:37.841Z,69.90
2019-02-09T07:52:08.563Z,69.90
2019-02-09T07:54:39.259Z,68.60
2019-02-09T07:57:10.005Z,68.80
2019-02-09T07:59:40.661Z,68.80
2019-02-09T08:02:11.207Z,69.10
2019-02-09T08:04:41.824Z,68.90
2019-02-09T08:07:12.511Z,66.70
2019-02-09T08:09:43.097Z,62.50
2019-02-09T08:12:13.702Z,58.70
2019-02-09T08:14:44.567Z,56.10
2019-02-09T08:17:15.124Z,55.00
2019-02-09T08:19:45.756Z,53.40
2019-02-09T08:22:16.593Z,53.40
2019-02-09T08:24:47.603Z,54.20
2019-02-09T08:27:23.428Z,53.90
2019-02-09T08:29:50.529Z,54.20
2019-02-09T08:32:21.077Z,55.30
2019-02-09T08:34:51.656Z,56.40
2019-02-09T08:37:22.331Z,57.10
2019-02-09T08:39:52.980Z,58.20
2019-02-09T08:42:23.571Z,59.20
2019-02-09T08:44:54.324Z,59.70
2019-02-09T08:47:24.967Z,60.60
2019-02-09T08:49:56.723Z,60.70
2019-02-09T08:52:27.397Z,61.30
2019-02-09T08:54:57.944Z,62.00
2019-02-09T08:57:28.534Z,62.50
2019-02-09T08:59:59.151Z,63.20
2019-02-09T09:02:29.770Z,63.40
2019-02-09T09:05:00.460Z,63.60
2019-02-09T09:07:31.383Z,64.80
2019-02-09T09:10:02.159Z,64.50
2019-02-09T09:12:32.796Z,64.80
2019-02-09T09:15:03.807Z,65.00
2019-02-09T09:17:34.495Z,65.10
2019-02-09T09:20:08.001Z,65.20
2019-02-09T09:22:38.928Z,65.20
2019-02-09T09:25:09.681Z,64.70
2019-02-09T09:27:40.230Z,64.80
2019-02-09T09:30:13.247Z,65.00
2019-02-09T09:32:43.811Z,65.30
2019-02-09T09:35:14.671Z,65.70
2019-02-09T09:37:45.250Z,66.40
2019-02-09T09:40:24.118Z,65.40
2019-02-09T09:42:54.962Z,65.00
2019-02-09T09:45:28.108Z,64.60
2019-02-09T09:47:58.963Z,64.70
2019-02-09T09:50:30.298Z,64.40
2019-02-09T09:53:00.948Z,61.00
2019-02-09T09:55:31.562Z,58.00
2019-02-09T09:58:02.545Z,54.20
2019-02-09T10:00:33.571Z,50.80
2019-02-09T10:03:04.459Z,48.10
2019-02-09T10:05:35.305Z,46.30
2019-02-09T10:08:06.952Z,44.70
2019-02-09T10:10:37.639Z,44.00
2019-02-09T10:13:08.161Z,42.80
2019-02-09T10:15:38.751Z,42.60
2019-02-09T10:18:09.491Z,42.20
2019-02-09T10:20:40.058Z,42.60
2019-02-09T10:23:10.842Z,44.30
2019-02-09T10:25:41.501Z,44.10
2019-02-09T10:28:12.164Z,43.50
2019-02-09T10:30:42.923Z,42.80
2019-02-09T10:33:13.507Z,44.40
2019-02-09T10:35:44.837Z,46.00
2019-02-09T10:38:15.514Z,47.80
2019-02-09T10:40:46.212Z,48.70
2019-02-09T10:43:16.826Z,49.00
2019-02-09T10:45:48.393Z,49.00
2019-02-09T10:48:19.075Z,48.60
2019-02-09T10:50:49.655Z,48.40
2019-02-09T10:53:20.209Z,48.60
2019-02-09T10:55:50.870Z,48.40
2019-02-09T10:58:21.425Z,49.60
2019-02-09T11:00:58.932Z,50.30
2019-02-09T11:03:29.623Z,50.30
2019-02-09T11:06:00.192Z,50.70
2019-02-09T11:08:30.774Z,50.80
2019-02-09T11:11:01.368Z,50.60
2019-02-09T11:13:31.944Z,51.00
2019-02-09T11:16:02.500Z,50.90
2019-02-09T11:18:33.146Z,50.80
2019-02-09T11:21:03.662Z,50.10
2019-02-09T11:23:34.363Z,49.90
2019-02-09T11:26:05.201Z,49.20
2019-02-09T11:28:35.905Z,49.00
2019-02-09T11:31:06.765Z,49.10
2019-02-09T11:33:37.473Z,48.90
2019-02-09T11:36:08.077Z,48.70
2019-02-09T11:38:38.629Z,49.00
2019-02-09T11:41:09.413Z,49.10
2019-02-09T11:43:40.101Z,49.30
2019-02-09T11:46:10.611Z,49.00
2019-02-09T11:48:41.191Z,48.70
2019-02-09T11:51:11.917Z,48.60
2019-02-09T11:53:42.805Z,48.80
2019-02-09T11:56:13.386Z,48.80
2019-02-09T11:58:44.078Z,48.70
2019-02-09T12:01:14.817Z,49.10
2019-02-09T12:03:45.529Z,49.10
2019-02-09T12:06:17.287Z,49.10
2019-02-09T12:08:47.908Z,49.20
2019-02-09T12:11:18.577Z,49.10
2019-02-09T12:13:55.226Z,49.10
2019-02-09T12:16:21.633Z,49.00
2019-02-09T12:18:52.245Z,49.00
2019-02-09T12:21:23.029Z,49.10
2019-02-09T12:23:53.830Z,49.10
2019-02-09T12:26:24.337Z,49.10
2019-02-09T12:28:54.924Z,49.20
2019-02-09T12:31:25.731Z,49.50
2019-02-09T12:33:56.333Z,49.60
2019-02-09T12:36:27.039Z,49.70
2019-02-09T12:38:57.715Z,49.80
2019-02-09T12:41:28.443Z,50.00
2019-02-09T12:43:58.984Z,50.30
2019-02-09T12:46:29.604Z,50.40
2019-02-09T12:49:00.311Z,50.50
2019-02-09T12:51:30.941Z,50.50
2019-02-09T12:54:01.593Z,50.60
2019-02-09T12:56:32.320Z,50.60
2019-02-09T12:59:02.963Z,50.50
2019-02-09T13:01:33.663Z,50.40
2019-02-09T13:04:06.128Z,50.30
2019-02-09T13:06:36.690Z,50.40
2019-02-09T13:09:09.265Z,50.20
2019-02-09T13:11:40.151Z,50.20
2019-02-09T13:14:10.848Z,50.10
2019-02-09T13:16:41.587Z,50.20
2019-02-09T13:19:12.187Z,50.60
2019-02-09T13:21:42.878Z,50.80
2019-02-09T13:24:13.518Z,50.90
2019-02-09T13:26:45.119Z,50.90
2019-02-09T13:29:15.935Z,51.00
2019-02-09T13:31:46.653Z,51.10
2019-02-09T13:34:17.626Z,51.30
2019-02-09T13:36:48.288Z,51.40
2019-02-09T13:39:18.906Z,51.40
2019-02-09T13:41:49.687Z,51.60
2019-02-09T13:44:20.328Z,51.80
2019-02-09T13:46:51.011Z,51.90
2019-02-09T13:49:21.647Z,52.00
2019-02-09T13:51:52.335Z,52.00
2019-02-09T13:54:22.967Z,52.20
2019-02-09T13:56:53.620Z,52.20
2019-02-09T13:59:24.298Z,52.10
2019-02-09T14:01:55.002Z,52.00
2019-02-09T14:04:25.699Z,52.50
2019-02-09T14:06:56.347Z,52.30
2019-02-09T14:09:27.051Z,52.40
2019-02-09T14:11:57.802Z,52.30
2019-02-09T14:14:28.422Z,52.40
2019-02-09T14:16:59.020Z,52.50
2019-02-09T14:19:29.735Z,52.30
2019-02-09T14:22:00.285Z,52.20
2019-02-09T14:24:30.960Z,52.20
2019-02-09T14:27:01.573Z,52.20
2019-02-09T14:29:32.213Z,52.20
2019-02-09T14:32:02.893Z,51.90
2019-02-09T14:34:33.525Z,51.80
2019-02-09T14:37:04.193Z,51.80
2019-02-09T14:39:34.895Z,51.70
2019-02-09T14:42:05.779Z,51.60
2019-02-09T14:44:36.506Z,51.60
2019-02-09T14:47:07.178Z,51.50
2019-02-09T14:49:37.951Z,51.50
2019-02-09T14:52:08.777Z,51.60
2019-02-09T14:54:39.330Z,51.50
2019-02-09T14:57:10.030Z,51.60
2019-02-09T14:59:40.526Z,51.70
2019-02-09T15:02:12.137Z,51.70
2019-02-09T15:04:42.710Z,51.70
2019-02-09T15:07:13.750Z,51.80
2019-02-09T15:09:44.414Z,51.80
2019-02-09T15:12:16.045Z,51.90
2019-02-09T15:14:46.703Z,51.80
2019-02-09T15:17:17.223Z,52.00
2019-02-09T15:19:47.906Z,52.00
2019-02-09T15:22:18.563Z,52.10
2019-02-09T15:24:49.105Z,52.10
2019-02-09T15:27:19.675Z,52.10
2019-02-09T15:29:50.256Z,52.20
2019-02-09T15:32:20.810Z,52.20
2019-02-09T15:34:51.594Z,52.20
2019-02-09T15:37:22.420Z,52.30
2019-02-09T15:39:53.117Z,52.50
2019-02-09T15:42:23.781Z,52.60
2019-02-09T15:44:54.505Z,52.60
2019-02-09T15:47:25.185Z,52.60
2019-02-09T15:49:55.941Z,52.60
2019-02-09T15:52:26.596Z,52.70
2019-02-09T15:54:57.337Z,52.80
2019-02-09T15:57:27.931Z,53.00
2019-02-09T15:59:58.522Z,53.00
2019-02-09T16:02:29.324Z,53.30
2019-02-09T16:04:59.977Z,53.20
2019-02-09T16:07:30.973Z,53.40
2019-02-09T16:10:01.587Z,53.50
2019-02-09T16:12:32.291Z,53.70
2019-02-09T16:15:03.305Z,53.70
2019-02-09T16:17:34.146Z,53.80
2019-02-09T16:20:05.712Z,53.90
2019-02-09T16:22:36.576Z,53.90
2019-02-09T16:25:07.500Z,53.80
2019-02-09T16:27:38.153Z,53.70
2019-02-09T16:30:18.259Z,53.70
2019-02-09T16:32:43.733Z,53.20
2019-02-09T16:35:16.164Z,53.70
2019-02-09T16:37:46.713Z,53.70
2019-02-09T16:40:19.283Z,53.60
2019-02-09T16:42:50.191Z,53.60
2019-02-09T16:45:26.403Z,53.60
2019-02-09T16:47:57.127Z,53.60
2019-02-09T16:50:27.653Z,53.70
2019-02-09T16:52:58.310Z,53.60
2019-02-09T16:55:29.081Z,53.70
2019-02-09T16:57:59.883Z,53.70
2019-02-09T17:00:32.687Z,53.70
2019-02-09T17:03:03.694Z,53.80
2019-02-09T17:05:34.494Z,53.90
2019-02-09T17:08:05.687Z,53.90
2019-02-09T17:10:36.576Z,53.90
2019-02-09T17:13:07.651Z,53.90
2019-02-09T17:15:38.519Z,54.00
2019-02-09T17:18:09.587Z,54.10
2019-02-09T17:20:40.638Z,54.10
2019-02-09T17:23:11.214Z,54.20
2019-02-09T17:25:41.895Z,54.40
2019-02-09T17:28:12.493Z,54.40
2019-02-09T17:30:43.167Z,54.60
2019-02-09T17:33:13.885Z,54.70
2019-02-09T17:35:45.532Z,54.80
2019-02-09T17:38:16.488Z,55.00
2019-02-09T17:40:48.011Z,55.00
2019-02-09T17:43:18.708Z,55.10
2019-02-09T17:45:58.765Z,55.30
2019-02-09T17:48:29.428Z,55.50
2019-02-09T17:51:00.258Z,55.50
2019-02-09T17:53:30.867Z,55.70
2019-02-09T17:56:01.437Z,55.90
2019-02-09T17:58:32.563Z,56.00
2019-02-09T18:01:14.003Z,56.00
2019-02-09T18:03:44.595Z,56.10
2019-02-09T18:06:15.549Z,56.20
2019-02-09T18:08:46.151Z,56.20
2019-02-09T18:11:16.719Z,56.90
2019-02-09T18:13:47.464Z,56.40
2019-02-09T18:16:18.116Z,56.40
2019-02-09T18:18:48.713Z,56.60
2019-02-09T18:21:19.292Z,56.80
2019-02-09T18:23:50.284Z,56.70
2019-02-09T18:26:21.001Z,56.70
2019-02-09T18:28:51.625Z,57.50
2019-02-09T18:31:22.174Z,57.10
2019-02-09T18:33:52.825Z,57.40
2019-02-09T18:36:23.365Z,57.60
2019-02-09T18:38:54.051Z,57.60
2019-02-09T18:41:24.654Z,58.40
2019-02-09T18:43:55.325Z,57.80
2019-02-09T18:46:26.524Z,57.90
2019-02-09T18:48:57.051Z,57.90
2019-02-09T18:51:27.688Z,57.70
2019-02-09T18:53:58.192Z,57.60
2019-02-09T18:56:28.925Z,57.50
2019-02-09T18:58:59.575Z,57.50
2019-02-09T19:01:30.171Z,57.60
2019-02-09T19:04:00.886Z,57.60
2019-02-09T19:06:31.669Z,57.50
2019-02-09T19:09:03.062Z,57.60
2019-02-09T19:11:35.681Z,57.10
2019-02-09T19:14:06.287Z,57.80
2019-02-09T19:16:37.141Z,57.80
2019-02-09T19:19:07.720Z,57.80
2019-02-09T19:21:38.349Z,57.80
2019-02-09T19:24:09.082Z,57.80
2019-02-09T19:26:39.701Z,58.00
2019-02-09T19:29:10.293Z,57.90
2019-02-09T19:31:40.901Z,58.10
2019-02-09T19:34:11.452Z,58.10
2019-02-09T19:36:42.023Z,58.30
2019-02-09T19:39:12.583Z,58.50
2019-02-09T19:41:43.502Z,58.40
2019-02-09T19:44:14.176Z,59.00
2019-02-09T19:46:44.759Z,58.50
2019-02-09T19:49:15.797Z,58.50
2019-02-09T19:51:46.320Z,58.50
2019-02-09T19:54:17.033Z,58.50
2019-02-09T19:56:47.725Z,58.50
2019-02-09T19:59:18.681Z,58.70
2019-02-09T20:01:49.223Z,58.70
2019-02-09T20:04:19.861Z,58.70
2019-02-09T20:06:50.886Z,58.90
2019-02-09T20:09:21.555Z,59.00
2019-02-09T20:11:52.227Z,59.00
2019-02-09T20:14:22.899Z,59.20
2019-02-09T20:16:53.635Z,59.30
2019-02-09T20:19:24.220Z,59.40
2019-02-09T20:21:54.739Z,59.60
2019-02-09T20:24:25.429Z,59.70
2019-02-09T20:26:56.156Z,59.90
2019-02-09T20:29:26.793Z,59.90
2019-02-09T20:31:57.441Z,59.90
2019-02-09T20:34:28.224Z,60.00
2019-02-09T20:36:58.866Z,59.80
2019-02-09T20:39:29.560Z,59.80
2019-02-09T20:42:00.422Z,59.80
2019-02-09T20:44:31.147Z,59.80
2019-02-09T20:47:01.861Z,59.90
2019-02-09T20:49:32.489Z,60.00
2019-02-09T20:52:04.329Z,60.30
2019-02-09T20:54:35.057Z,60.80
2019-02-09T20:57:05.613Z,61.00
2019-02-09T20:59:36.168Z,61.20
2019-02-09T21:02:07.158Z,61.30
2019-02-09T21:04:37.811Z,61.20
2019-02-09T21:07:08.432Z,61.20
2019-02-09T21:09:39.154Z,61.10
2019-02-09T21:12:10.026Z,61.10
2019-02-09T21:14:40.648Z,61.40
2019-02-09T21:17:11.292Z,61.40
2019-02-09T21:19:42.019Z,61.50
2019-02-09T21:22:12.981Z,61.60
2019-02-09T21:24:43.625Z,61.40
2019-02-09T21:27:14.272Z,62.20
2019-02-09T21:29:44.858Z,61.50
2019-02-09T21:32:15.497Z,61.50
2019-02-09T21:34:46.175Z,61.60
2019-02-09T21:37:16.743Z,61.70
2019-02-09T21:39:47.602Z,61.80
2019-02-09T21:42:18.141Z,61.80
2019-02-09T21:44:48.723Z,61.80
2019-02-09T21:47:19.423Z,61.90
2019-02-09T21:49:49.918Z,62.20
2019-02-09T21:52:20.627Z,62.20
2019-02-09T21:54:51.376Z,62.40
2019-02-09T21:57:23.187Z,62.50
2019-02-09T21:59:53.924Z,62.80
2019-02-09T22:02:24.596Z,63.00
2019-02-09T22:04:55.319Z,62.90
2019-02-09T22:07:25.983Z,63.10
2019-02-09T22:09:57.747Z,63.10
2019-02-09T22:12:28.417Z,63.30
2019-02-09T22:14:59.627Z,63.60
2019-02-09T22:17:42.567Z,63.40
2019-02-09T22:20:14.880Z,63.50
2019-02-09T22:22:45.470Z,63.60
2019-02-09T22:25:18.348Z,63.80
2019-02-09T22:27:49.297Z,63.90
2019-02-09T22:30:24.955Z,64.20
2019-02-09T22:32:56.357Z,64.20
2019-02-09T22:35:27.445Z,64.10
2019-02-09T22:37:58.427Z,64.00
2019-02-09T22:40:31.110Z,63.90
2019-02-09T22:43:06.211Z,63.80
2019-02-09T22:45:37.469Z,63.80
2019-02-09T22:48:09.568Z,63.80
2019-02-09T22:50:45.156Z,63.90
2019-02-09T22:53:16.199Z,64.00
2019-02-09T22:55:46.902Z,63.80
2019-02-09T22:58:18.171Z,63.80
2019-02-09T23:01:54.206Z,63.80
2019-02-09T23:05:02.787Z,63.80
2019-02-09T23:07:34.640Z,63.80
2019-02-09T23:10:14.977Z,63.90
2019-02-09T23:12:48.631Z,64.10
2019-02-09T23:15:18.030Z,64.20
2019-02-09T23:17:48.703Z,64.30
2019-02-09T23:20:19.453Z,64.40
2019-02-09T23:22:50.098Z,64.30
2019-02-09T23:25:20.677Z,64.30
2019-02-09T23:27:51.400Z,64.30
2019-02-09T23:30:22.130Z,64.30
2019-02-09T23:32:52.758Z,64.30
2019-02-09T23:35:23.360Z,64.30
2019-02-09T23:37:54.013Z,64.30
2019-02-09T23:40:24.808Z,64.30
2019-02-09T23:42:55.432Z,64.40
2019-02-09T23:45:26.247Z,64.40
2019-02-09T23:47:56.932Z,64.30
2019-02-09T23:50:27.522Z,64.30
2019-02-09T23:52:58.070Z,64.50
2019-02-09T23:55:28.715Z,64.40
2019-02-09T23:57:59.504Z,64.30
